Time;durP1;ratioP1;P1;durP2;ratioP2;P2;SDS_P1;SDS_P2;PMS_P1;PMS_P2;Temp;Humidity;BMP_temperature;BMP_pressure;BME280_temperature;BME280_humidity;BME280_pressure;Samples;Min_cycle;Max_cycle;Signal;HPM_P1;HPM_P2
2023/12/05 00:01:13;;;;;;;;;;;;;;;;;;4147930;28;19928;-56
2023/12/05 00:03:15;;;;;;;;;;;;;;;;;;4147711;28;19944;-56
2023/12/05 00:05:16;;;;;;;;;;;;;;;;;;4147399;28;19922;-56
2023/12/05 00:07:19;;;;;;;;;;;;;;;;;;4147604;28;19971;-57
2023/12/05 00:09:21;;;;;;;;;;;;;;;;;;4158810;28;19943;-57
2023/12/05 00:11:22;;;;;;;;;;;;;;;;;;4147356;28;19928;-56
2023/12/05 00:13:24;;;;;;;;;;;;;;;;;;4147426;28;20374;-56
2023/12/05 00:15:25;;;;;;;;;;;;;;;;;;4147268;28;19925;-57
2023/12/05 00:17:27;;;;;;;;;;;;;;;;;;4147499;28;20395;-56
2023/12/05 00:19:28;;;;;;;;;;;;;;;;;;4147213;28;19928;-56
2023/12/05 00:21:30;;;;;;;;;;;;;;;;;;4147122;28;19922;-57
2023/12/05 00:23:31;;;;;;;;;;;;;;;;;;4159622;28;20373;-56
2023/12/05 00:25:33;;;;;;;;;;;;;;;;;;4163724;28;19955;-57
2023/12/05 00:27:34;;;;;;;;;;;;;;;;;;4153099;28;19925;-56
2023/12/05 00:29:36;;;;;;;;;;;;;;;;;;4147253;28;19921;-57
2023/12/05 00:31:37;;;;;;;;;;;;;;;;;;4147610;28;20310;-56
2023/12/05 00:33:39;;;;;;;;;;;;;;;;;;4149973;28;19929;-57
2023/12/05 00:35:40;;;;;;;;;;;;;;;;;;4150103;28;20365;-56
2023/12/05 00:37:42;;;;;;;;;;;;;;;;;;4150140;28;20377;-57
2023/12/05 00:39:43;;;;;;;;;;;;;;;;;;4149835;28;19928;-56
2023/12/05 00:41:46;;;;;;;;;;;;;;;;;;4149883;28;19921;-57
2023/12/05 00:43:48;;;;;;;;;;;;;;;;;;4149649;28;19971;-57
2023/12/05 00:45:49;;;;;;;;;;;;;;;;;;4149836;28;19933;-57
2023/12/05 00:47:51;;;;;;;;;;;;;;;;;;4149903;28;19932;-57
2023/12/05 00:49:52;;;;;;;;;;;;;;;;;;4149968;28;19928;-57
2023/12/05 00:51:54;;;;;;;;;;;;;;;;;;4149749;28;20365;-56
2023/12/05 00:53:56;;;;;;;;;;;;;;;;;;4155133;28;20285;-57
2023/12/05 00:55:57;;;;;;;;;;;;;;;;;;4149415;28;19928;-57
2023/12/05 00:57:59;;;;;;;;;;;;;;;;;;4150164;28;19921;-56
2023/12/05 01:00:00;;;;;;;;;;;;;;;;;;4149694;28;19968;-57
2023/12/05 01:02:02;;;;;;;;;;;;;;;;;;4149615;28;19925;-57
2023/12/05 01:04:04;;;;;;;;;;;;;;;;;;4104796;28;1282006;-56
2023/12/05 01:06:05;;;;;;;;;;;;;;;;;;4150352;28;19925;-56
2023/12/05 01:08:07;;;;;;;;;;;;;;;;;;4152535;28;19921;-56
2023/12/05 01:10:09;;;;;;;;;;;;;;;;;;4155801;28;20374;-57
2023/12/05 01:12:11;;;;;;;;;;;;;;;;;;4150784;28;19921;-57
2023/12/05 01:14:13;;;;;;;;;;;;;;;;;;4150351;28;19964;-57
2023/12/05 01:16:14;;;;;;;;;;;;;;;;;;4150466;28;19929;-56
2023/12/05 01:18:16;;;;;;;;;;;;;;;;;;4163949;28;19921;-56
2023/12/05 01:20:18;;;;;;;;;;;;;;;;;;4166311;28;20376;-57
2023/12/05 01:22:19;;;;;;;;;;;;;;;;;;4151692;28;19926;-57
2023/12/05 01:24:20;;;;;;;;;;;;;;;;;;4150286;28;19921;-56
2023/12/05 01:26:22;;;;;;;;;;;;;;;;;;4150442;28;19921;-56
2023/12/05 01:28:23;;;;;;;;;;;;;;;;;;4150236;28;19922;-56
2023/12/05 01:30:25;;;;;;;;;;;;;;;;;;4149971;28;19925;-57
2023/12/05 01:32:26;;;;;;;;;;;;;;;;;;4150013;28;20385;-57
2023/12/05 01:34:28;;;;;;;;;;;;;;;;;;4150365;28;19949;-57
2023/12/05 01:36:30;;;;;;;;;;;;;;;;;;4151332;28;19925;-56
2023/12/05 01:38:32;;;;;;;;;;;;;;;;;;4162467;28;19922;-57
2023/12/05 01:40:33;;;;;;;;;;;;;;;;;;4150071;28;20451;-57
2023/12/05 01:42:35;;;;;;;;;;;;;;;;;;4150113;28;19921;-57
2023/12/05 01:44:37;;;;;;;;;;;;;;;;;;4150253;28;20401;-57
2023/12/05 01:46:38;;;;;;;;;;;;;;;;;;4149849;28;19929;-56
2023/12/05 01:48:40;;;;;;;;;;;;;;;;;;4150001;28;19948;-56
2023/12/05 01:50:43;;;;;;;;;;;;;;;;;;4149799;28;20000;-57
2023/12/05 01:52:45;;;;;;;;;;;;;;;;;;4149854;28;20289;-57
2023/12/05 01:54:46;;;;;;;;;;;;;;;;;;4155327;28;19921;-56
2023/12/05 01:56:48;;;;;;;;;;;;;;;;;;4149999;28;20357;-57
2023/12/05 01:58:49;;;;;;;;;;;;;;;;;;4149030;28;19925;-56
2023/12/05 02:00:50;;;;;;;;;;;;;;;;;;4149648;28;19959;-57
2023/12/05 02:02:52;;;;;;;;;;;;;;;;;;4148596;28;19933;-56
2023/12/05 02:04:54;;;;;;;;;;;;;;;;;;4149571;28;19960;-56
2023/12/05 02:06:55;;;;;;;;;;;;;;;;;;4149304;28;19922;-57
2023/12/05 02:08:57;;;;;;;;;;;;;;;;;;4158141;28;19963;-57
2023/12/05 02:10:58;;;;;;;;;;;;;;;;;;4165850;28;19979;-56
2023/12/05 02:13:00;;;;;;;;;;;;;;;;;;4166238;28;19920;-57
2023/12/05 02:15:02;;;;;;;;;;;;;;;;;;4165942;28;19921;-56
2023/12/05 02:17:05;;;;;;;;;;;;;;;;;;4166020;28;19925;-56
2023/12/05 02:19:06;;;;;;;;;;;;;;;;;;4156742;28;20374;-57
2023/12/05 02:21:07;;;;;;;;;;;;;;;;;;4149499;28;19925;-56
2023/12/05 02:23:09;;;;;;;;;;;;;;;;;;4159028;28;19972;-56
2023/12/05 02:25:10;;;;;;;;;;;;;;;;;;4164442;28;19931;-56
2023/12/05 02:27:12;;;;;;;;;;;;;;;;;;4149417;28;19972;-57
2023/12/05 02:29:13;;;;;;;;;;;;;;;;;;4149268;28;19921;-57
2023/12/05 02:31:15;;;;;;;;;;;;;;;;;;4149329;28;19921;-56
2023/12/05 02:33:17;;;;;;;;;;;;;;;;;;4149528;28;19925;-56
2023/12/05 02:35:19;;;;;;;;;;;;;;;;;;4149167;28;19925;-56
2023/12/05 02:37:20;;;;;;;;;;;;;;;;;;4149273;28;19926;-55
2023/12/05 02:39:22;;;;;;;;;;;;;;;;;;4149117;28;19932;-57
2023/12/05 02:41:23;;;;;;;;;;;;;;;;;;4149272;28;19968;-57
2023/12/05 02:43:25;;;;;;;;;;;;;;;;;;4149154;28;19921;-57
2023/12/05 02:45:26;;;;;;;;;;;;;;;;;;4149095;28;19921;-56
2023/12/05 02:47:29;;;;;;;;;;;;;;;;;;4148283;28;19925;-57
2023/12/05 02:49:31;;;;;;;;;;;;;;;;;;4149018;28;19983;-56
2023/12/05 02:51:33;;;;;;;;;;;;;;;;;;4148744;28;19999;-57
2023/12/05 02:53:34;;;;;;;;;;;;;;;;;;4154185;28;19972;-57
2023/12/05 02:55:36;;;;;;;;;;;;;;;;;;4155779;28;19921;-56
2023/12/05 02:57:37;;;;;;;;;;;;;;;;;;4149065;28;19922;-56
2023/12/05 02:59:39;;;;;;;;;;;;;;;;;;4148864;28;19972;-57
2023/12/05 03:01:40;;;;;;;;;;;;;;;;;;4148450;28;20489;-57
2023/12/05 03:03:42;;;;;;;;;;;;;;;;;;4148575;28;20384;-57
2023/12/05 03:05:43;;;;;;;;;;;;;;;;;;4148712;28;19952;-57
2023/12/05 03:07:45;;;;;;;;;;;;;;;;;;4149022;28;20008;-56
2023/12/05 03:09:46;;;;;;;;;;;;;;;;;;4164052;28;19971;-57
2023/12/05 03:11:48;;;;;;;;;;;;;;;;;;4165244;28;19975;-57
2023/12/05 03:13:49;;;;;;;;;;;;;;;;;;4165210;28;19979;-57
2023/12/05 03:15:51;;;;;;;;;;;;;;;;;;4148821;28;19921;-57
2023/12/05 03:17:52;;;;;;;;;;;;;;;;;;4149077;28;20040;-57
2023/12/05 03:19:54;;;;;;;;;;;;;;;;;;4148527;28;19928;-57
2023/12/05 03:21:55;;;;;;;;;;;;;;;;;;4148741;28;19921;-57
2023/12/05 03:23:57;;;;;;;;;;;;;;;;;;4148559;28;20020;-56
2023/12/05 03:25:58;;;;;;;;;;;;;;;;;;4148670;28;19921;-57
2023/12/05 03:28:00;;;;;;;;;;;;;;;;;;4163475;28;19929;-57
2023/12/05 03:30:02;;;;;;;;;;;;;;;;;;4148634;28;19932;-57
2023/12/05 03:32:04;;;;;;;;;;;;;;;;;;4148487;28;19929;-57
2023/12/05 03:34:06;;;;;;;;;;;;;;;;;;4148592;28;19922;-57
2023/12/05 03:36:08;;;;;;;;;;;;;;;;;;4148563;28;19960;-56
2023/12/05 03:38:09;;;;;;;;;;;;;;;;;;4148275;28;20362;-57
2023/12/05 03:40:11;;;;;;;;;;;;;;;;;;4148250;28;19921;-57
2023/12/05 03:42:12;;;;;;;;;;;;;;;;;;4130719;28;19925;-57
2023/12/05 03:44:14;;;;;;;;;;;;;;;;;;4148550;28;19968;-57
2023/12/05 03:46:15;;;;;;;;;;;;;;;;;;4148179;28;19921;-56
2023/12/05 03:48:17;;;;;;;;;;;;;;;;;;4164576;28;19982;-57
2023/12/05 03:50:18;;;;;;;;;;;;;;;;;;4164692;28;20373;-57
2023/12/05 03:52:20;;;;;;;;;;;;;;;;;;4164494;28;19929;-57
2023/12/05 03:54:21;;;;;;;;;;;;;;;;;;4164113;28;19925;-57
2023/12/05 03:56:23;;;;;;;;;;;;;;;;;;4146845;28;19929;-56
2023/12/05 03:58:24;;;;;;;;;;;;;;;;;;4146632;28;20389;-57
2023/12/05 04:00:25;;;;;;;;;;;;;;;;;;4146351;28;19925;-56
2023/12/05 04:02:27;;;;;;;;;;;;;;;;;;4146578;28;19921;-56
2023/12/05 04:04:28;;;;;;;;;;;;;;;;;;4146399;28;20428;-57
2023/12/05 04:06:30;;;;;;;;;;;;;;;;;;4127921;28;20029;-57
2023/12/05 04:08:32;;;;;;;;;;;;;;;;;;4151480;28;20565;-56
2023/12/05 04:10:33;;;;;;;;;;;;;;;;;;4156107;28;19921;-56
2023/12/05 04:12:35;;;;;;;;;;;;;;;;;;4148281;28;19928;-57
2023/12/05 04:14:36;;;;;;;;;;;;;;;;;;4148199;28;19929;-57
2023/12/05 04:16:37;;;;;;;;;;;;;;;;;;4148253;28;19925;-57
2023/12/05 04:18:39;;;;;;;;;;;;;;;;;;4148183;28;19925;-56
2023/12/05 04:20:41;;;;;;;;;;;;;;;;;;4148086;28;19929;-57
2023/12/05 04:22:42;;;;;;;;;;;;;;;;;;4154016;28;20031;-57
2023/12/05 04:24:44;;;;;;;;;;;;;;;;;;4164252;28;19921;-57
2023/12/05 04:26:45;;;;;;;;;;;;;;;;;;4164357;28;20015;-57
2023/12/05 04:28:47;;;;;;;;;;;;;;;;;;4148486;28;19921;-57
2023/12/05 04:30:48;;;;;;;;;;;;;;;;;;4148031;28;19922;-57
2023/12/05 04:32:50;;;;;;;;;;;;;;;;;;4148239;28;19926;-56
2023/12/05 04:34:51;;;;;;;;;;;;;;;;;;4148123;28;20052;-56
2023/12/05 04:36:53;;;;;;;;;;;;;;;;;;4147743;28;19921;-57
2023/12/05 04:38:55;;;;;;;;;;;;;;;;;;4147803;28;19925;-58
2023/12/05 04:40:56;;;;;;;;;;;;;;;;;;4147431;28;19976;-57
2023/12/05 04:42:58;;;;;;;;;;;;;;;;;;4147780;28;19949;-56
2023/12/05 04:44:59;;;;;;;;;;;;;;;;;;4147950;28;19928;-56
2023/12/05 04:47:03;;;;;;;;;;;;;;;;;;4147947;28;20188;-57
2023/12/05 04:49:05;;;;;;;;;;;;;;;;;;4147785;28;19929;-56
2023/12/05 04:51:07;;;;;;;;;;;;;;;;;;4147551;28;19971;-57
2023/12/05 04:53:08;;;;;;;;;;;;;;;;;;4149427;28;19925;-57
2023/12/05 04:55:09;;;;;;;;;;;;;;;;;;4153108;28;19987;-57
2023/12/05 04:57:11;;;;;;;;;;;;;;;;;;4147731;28;19925;-57
2023/12/05 04:59:12;;;;;;;;;;;;;;;;;;4147749;28;20293;-56
2023/12/05 05:01:14;;;;;;;;;;;;;;;;;;4147541;28;20357;-57
2023/12/05 05:03:17;;;;;;;;;;;;;;;;;;4146634;28;19925;-56
2023/12/05 05:05:19;;;;;;;;;;;;;;;;;;4147885;28;20412;-57
2023/12/05 05:07:20;;;;;;;;;;;;;;;;;;4147397;28;20439;-57
2023/12/05 05:09:22;;;;;;;;;;;;;;;;;;4159361;28;19921;-56
2023/12/05 05:11:23;;;;;;;;;;;;;;;;;;4148816;28;19968;-57
2023/12/05 05:13:25;;;;;;;;;;;;;;;;;;4148512;28;19944;-56
2023/12/05 05:15:26;;;;;;;;;;;;;;;;;;4147665;28;19922;-58
2023/12/05 05:17:28;;;;;;;;;;;;;;;;;;4148279;28;20313;-57
2023/12/05 05:19:29;;;;;;;;;;;;;;;;;;4150570;28;19987;-57
2023/12/05 05:21:31;;;;;;;;;;;;;;;;;;4145945;28;19960;-57
2023/12/05 05:23:32;;;;;;;;;;;;;;;;;;4150479;28;19929;-56
2023/12/05 05:25:34;;;;;;;;;;;;;;;;;;4150146;28;19964;-57
2023/12/05 05:27:35;;;;;;;;;;;;;;;;;;4150391;28;20428;-57
2023/12/05 05:29:37;;;;;;;;;;;;;;;;;;4150597;28;19976;-57
2023/12/05 05:31:38;;;;;;;;;;;;;;;;;;4150520;28;19922;-57
2023/12/05 05:33:40;;;;;;;;;;;;;;;;;;4150156;28;19995;-56
2023/12/05 05:35:41;;;;;;;;;;;;;;;;;;4150151;28;20024;-57
2023/12/05 05:37:43;;;;;;;;;;;;;;;;;;4157457;28;19984;-56
2023/12/05 05:39:44;;;;;;;;;;;;;;;;;;4150306;28;20314;-57
2023/12/05 05:41:46;;;;;;;;;;;;;;;;;;4152240;28;19964;-57
2023/12/05 05:43:47;;;;;;;;;;;;;;;;;;4149996;28;20424;-57
2023/12/05 05:45:49;;;;;;;;;;;;;;;;;;4150496;28;19921;-57
2023/12/05 05:47:50;;;;;;;;;;;;;;;;;;4149862;28;20024;-57
2023/12/05 05:49:52;;;;;;;;;;;;;;;;;;4150037;28;19927;-57
2023/12/05 05:51:53;;;;;;;;;;;;;;;;;;4149938;28;19932;-56
2023/12/05 05:53:55;;;;;;;;;;;;;;;;;;4158046;28;19928;-56
2023/12/05 05:55:57;;;;;;;;;;;;;;;;;;4166210;28;20320;-57
2023/12/05 05:57:58;;;;;;;;;;;;;;;;;;4157182;28;20362;-56
2023/12/05 06:00:00;;;;;;;;;;;;;;;;;;4149917;28;20369;-56
2023/12/05 06:02:02;;;;;;;;;;;;;;;;;;4149507;28;19925;-57
2023/12/05 06:04:03;;;;;;;;;;;;;;;;;;4138929;28;19933;-57
2023/12/05 06:06:05;;;;;;;;;;;;;;;;;;4132908;28;19921;-57
2023/12/05 06:08:06;;;;;;;;;;;;;;;;;;4151153;28;20381;-57
2023/12/05 06:10:08;;;;;;;;;;;;;;;;;;4165966;28;19975;-57
2023/12/05 06:12:11;;;;;;;;;;;;;;;;;;4147553;28;19965;-56
2023/12/05 06:14:13;;;;;;;;;;;;;;;;;;4147692;28;19925;-56
2023/12/05 06:16:14;;;;;;;;;;;;;;;;;;4138211;28;20347;-57
2023/12/05 06:18:16;;;;;;;;;;;;;;;;;;4145305;28;19922;-57
2023/12/05 06:20:17;;;;;;;;;;;;;;;;;;4148486;28;19969;-58
2023/12/05 06:22:19;;;;;;;;;;;;;;;;;;4151191;28;20333;-66
2023/12/05 06:24:20;;;;;;;;;;;;;;;;;;4149248;28;19937;-67
2023/12/05 06:26:22;;;;;;;;;;;;;;;;;;4149197;28;19929;-67
2023/12/05 06:28:23;;;;;;;;;;;;;;;;;;4148202;28;20052;-67
2023/12/05 06:30:25;;;;;;;;;;;;;;;;;;4147765;28;19971;-67
2023/12/05 06:32:27;;;;;;;;;;;;;;;;;;4131812;28;19959;-66
2023/12/05 06:34:29;;;;;;;;;;;;;;;;;;4149261;28;19928;-66
2023/12/05 06:36:30;;;;;;;;;;;;;;;;;;4149058;28;19925;-66
2023/12/05 06:38:32;;;;;;;;;;;;;;;;;;4149330;28;20021;-67
2023/12/05 06:40:33;;;;;;;;;;;;;;;;;;4149259;28;20412;-66
2023/12/05 06:42:35;;;;;;;;;;;;;;;;;;4149148;28;19956;-66
2023/12/05 06:44:36;;;;;;;;;;;;;;;;;;4149245;28;19975;-66
2023/12/05 06:46:38;;;;;;;;;;;;;;;;;;4149153;28;20373;-66
2023/12/05 06:48:39;;;;;;;;;;;;;;;;;;4149252;28;19925;-66
2023/12/05 06:50:45;;;;;;;;;;;;;;;;;;4149118;28;20404;-64
2023/12/05 06:52:46;;;;;;;;;;;;;;;;;;4149153;28;19928;-65
2023/12/05 06:54:48;;;;;;;;;;;;;;;;;;4164210;28;19920;-64
2023/12/05 06:56:49;;;;;;;;;;;;;;;;;;4165275;28;20451;-64
2023/12/05 06:58:51;;;;;;;;;;;;;;;;;;4165182;28;19987;-65
2023/12/05 07:00:52;;;;;;;;;;;;;;;;;;4165202;28;19924;-64
2023/12/05 07:02:54;;;;;;;;;;;;;;;;;;4165360;28;19951;-64
2023/12/05 07:04:57;;;;;;;;;;;;;;;;;;4165446;28;20317;-64
2023/12/05 07:06:59;;;;;;;;;;;;;;;;;;4165449;28;19921;-65
2023/12/05 07:09:01;;;;;;;;;;;;;;;;;;4165043;28;19921;-64
2023/12/05 07:11:02;;;;;;;;;;;;;;;;;;4164713;28;19929;-65
2023/12/05 07:13:04;;;;;;;;;;;;;;;;;;4165300;28;19925;-64
2023/12/05 07:15:06;;;;;;;;;;;;;;;;;;4165060;28;19920;-65
2023/12/05 07:17:08;;;;;;;;;;;;;;;;;;4152185;28;19922;-65
2023/12/05 07:19:09;;;;;;;;;;;;;;;;;;4148819;28;20349;-64
2023/12/05 07:21:11;;;;;;;;;;;;;;;;;;4148871;28;19972;-65
2023/12/05 07:23:12;;;;;;;;;;;;;;;;;;4148574;28;20313;-65
2023/12/05 07:25:14;;;;;;;;;;;;;;;;;;4148933;28;20369;-64
2023/12/05 07:27:15;;;;;;;;;;;;;;;;;;4148674;28;19987;-64
2023/12/05 07:29:17;;;;;;;;;;;;;;;;;;4148854;28;19928;-64
2023/12/05 07:31:19;;;;;;;;;;;;;;;;;;4147936;28;19921;-65
2023/12/05 07:33:20;;;;;;;;;;;;;;;;;;4148604;28;19991;-65
2023/12/05 07:35:22;;;;;;;;;;;;;;;;;;4148786;28;19931;-65
2023/12/05 07:37:24;;;;;;;;;;;;;;;;;;4148837;28;19971;-65
2023/12/05 07:39:26;;;;;;;;;;;;;;;;;;4148564;28;19921;-65
2023/12/05 07:41:27;;;;;;;;;;;;;;;;;;4148389;28;20415;-64
2023/12/05 07:43:29;;;;;;;;;;;;;;;;;;4148543;28;20285;-65
2023/12/05 07:45:30;;;;;;;;;;;;;;;;;;4148435;28;19921;-65
2023/12/05 07:47:32;;;;;;;;;;;;;;;;;;4148451;28;19925;-65
2023/12/05 07:49:33;;;;;;;;;;;;;;;;;;4148468;28;19921;-65
2023/12/05 07:51:35;;;;;;;;;;;;;;;;;;4148596;28;19922;-65
2023/12/05 07:53:37;;;;;;;;;;;;;;;;;;4154272;28;19971;-65
2023/12/05 07:55:38;;;;;;;;;;;;;;;;;;4164724;28;20391;-65
2023/12/05 07:57:40;;;;;;;;;;;;;;;;;;4164759;28;19925;-65
2023/12/05 07:59:41;;;;;;;;;;;;;;;;;;4146915;28;19925;-65
2023/12/05 08:01:44;;;;;;;;;;;;;;;;;;4164676;28;19925;-65
2023/12/05 08:03:46;;;;;;;;;;;;;;;;;;4164361;28;19925;-65
2023/12/05 08:05:48;;;;;;;;;;;;;;;;;;4164791;28;19925;-65
2023/12/05 08:07:49;;;;;;;;;;;;;;;;;;4164848;28;19921;-65
2023/12/05 08:09:51;;;;;;;;;;;;;;;;;;4164399;28;19975;-65
2023/12/05 08:11:52;;;;;;;;;;;;;;;;;;4163946;28;19956;-65
2023/12/05 08:13:54;;;;;;;;;;;;;;;;;;4148058;28;19951;-65
2023/12/05 08:15:55;;;;;;;;;;;;;;;;;;4147947;28;19922;-64
2023/12/05 08:17:57;;;;;;;;;;;;;;;;;;4130688;28;19921;-65
2023/12/05 08:19:58;;;;;;;;;;;;;;;;;;4147962;28;19921;-65
2023/12/05 08:22:00;;;;;;;;;;;;;;;;;;4148242;28;19929;-65
2023/12/05 08:24:01;;;;;;;;;;;;;;;;;;4148244;28;19921;-65
2023/12/05 08:26:03;;;;;;;;;;;;;;;;;;4148254;28;20023;-65
2023/12/05 08:28:04;;;;;;;;;;;;;;;;;;4148015;28;20013;-65
2023/12/05 08:30:06;;;;;;;;;;;;;;;;;;4148001;28;19928;-65
2023/12/05 08:32:08;;;;;;;;;;;;;;;;;;4148090;28;19926;-65
2023/12/05 08:34:09;;;;;;;;;;;;;;;;;;4147983;28;20436;-65
2023/12/05 08:36:11;;;;;;;;;;;;;;;;;;4148080;28;19925;-64
2023/12/05 08:38:12;;;;;;;;;;;;;;;;;;4148226;28;20026;-65
2023/12/05 08:40:14;;;;;;;;;;;;;;;;;;4148044;28;19932;-64
2023/12/05 08:42:15;;;;;;;;;;;;;;;;;;4147930;28;19921;-65
2023/12/05 08:44:17;;;;;;;;;;;;;;;;;;4148166;28;20289;-65
2023/12/05 08:46:18;;;;;;;;;;;;;;;;;;4147869;28;19926;-64
2023/12/05 08:48:20;;;;;;;;;;;;;;;;;;4148141;28;19964;-65
2023/12/05 08:50:30;;;;;;;;;;;;;;;;;;4148116;28;19922;-65
2023/12/05 08:52:32;;;;;;;;;;;;;;;;;;4148956;28;20324;-64
2023/12/05 08:54:33;;;;;;;;;;;;;;;;;;4151178;28;19957;-64
2023/12/05 08:56:35;;;;;;;;;;;;;;;;;;4151007;28;20373;-64
2023/12/05 08:58:36;;;;;;;;;;;;;;;;;;4150895;28;19952;-64
2023/12/05 09:00:38;;;;;;;;;;;;;;;;;;4150664;28;20366;-64
2023/12/05 09:02:39;;;;;;;;;;;;;;;;;;4150964;28;20016;-64
2023/12/05 09:04:41;;;;;;;;;;;;;;;;;;4150757;28;20184;-65
2023/12/05 09:06:42;;;;;;;;;;;;;;;;;;4151117;28;19947;-65
2023/12/05 09:08:44;;;;;;;;;;;;;;;;;;4152055;28;19968;-64
2023/12/05 09:10:46;;;;;;;;;;;;;;;;;;4150753;28;19921;-65
2023/12/05 09:12:47;;;;;;;;;;;;;;;;;;4150641;28;19967;-64
2023/12/05 09:14:49;;;;;;;;;;;;;;;;;;4150511;28;19929;-64
2023/12/05 09:16:50;;;;;;;;;;;;;;;;;;4150881;28;19925;-64
2023/12/05 09:18:52;;;;;;;;;;;;;;;;;;4150648;28;20310;-64
2023/12/05 09:20:54;;;;;;;;;;;;;;;;;;4150707;28;19921;-64
2023/12/05 09:22:55;;;;;;;;;;;;;;;;;;4150734;28;19921;-65
2023/12/05 09:25:02;;;;;;;;;;;;;;;;;;4150700;28;19921;-65
2023/12/05 09:27:05;;;;;;;;;;;;;;;;;;4150759;28;19921;-64
2023/12/05 09:29:07;;;;;;;;;;;;;;;;;;4150793;28;19928;-64
2023/12/05 09:31:08;;;;;;;;;;;;;;;;;;4150671;28;19921;-64
2023/12/05 09:33:10;;;;;;;;;;;;;;;;;;4133268;28;19921;-65
2023/12/05 09:35:11;;;;;;;;;;;;;;;;;;4135025;28;19968;-64
2023/12/05 09:37:13;;;;;;;;;;;;;;;;;;4150747;28;19925;-64
2023/12/05 09:39:14;;;;;;;;;;;;;;;;;;4150425;28;20392;-65
2023/12/05 09:41:16;;;;;;;;;;;;;;;;;;4150491;28;19921;-64
2023/12/05 09:43:17;;;;;;;;;;;;;;;;;;4150051;28;20456;-65
2023/12/05 09:45:20;;;;;;;;;;;;;;;;;;4150539;28;19976;-65
2023/12/05 09:47:22;;;;;;;;;;;;;;;;;;4133182;28;19922;-65
2023/12/05 09:49:23;;;;;;;;;;;;;;;;;;4150375;28;19925;-64
2023/12/05 09:51:25;;;;;;;;;;;;;;;;;;4150349;28;20367;-65
2023/12/05 09:53:26;;;;;;;;;;;;;;;;;;4154726;28;19960;-65
2023/12/05 09:55:28;;;;;;;;;;;;;;;;;;4166695;28;19921;-65
2023/12/05 09:57:29;;;;;;;;;;;;;;;;;;4166463;28;19928;-65
2023/12/05 09:59:31;;;;;;;;;;;;;;;;;;4166509;28;19920;-65
2023/12/05 10:01:32;;;;;;;;;;;;;;;;;;4166250;28;19921;-65
2023/12/05 10:03:35;;;;;;;;;;;;;;;;;;4166313;28;19921;-65
2023/12/05 10:05:36;;;;;;;;;;;;;;;;;;4155947;28;19921;-64
2023/12/05 10:07:38;;;;;;;;;;;;;;;;;;4150041;28;19925;-65
2023/12/05 10:09:39;;;;;;;;;;;;;;;;;;4164102;28;19921;-65
2023/12/05 10:11:41;;;;;;;;;;;;;;;;;;4166320;28;20389;-64
2023/12/05 10:13:42;;;;;;;;;;;;;;;;;;4166261;28;19975;-65
2023/12/05 10:15:44;;;;;;;;;;;;;;;;;;4166258;28;19925;-64
2023/12/05 10:17:45;;;;;;;;;;;;;;;;;;4166302;28;19971;-65
2023/12/05 10:19:47;;;;;;;;;;;;;;;;;;4165862;28;19999;-65
2023/12/05 10:21:49;;;;;;;;;;;;;;;;;;4166205;28;19928;-67
2023/12/05 10:23:51;;;;;;;;;;;;;;;;;;4163583;28;19929;-67
2023/12/05 10:25:53;;;;;;;;;;;;;;;;;;4149579;28;19925;-67
2023/12/05 10:27:54;;;;;;;;;;;;;;;;;;4149594;28;19925;-67
2023/12/05 10:29:56;;;;;;;;;;;;;;;;;;4131863;28;19921;-66
2023/12/05 10:31:57;;;;;;;;;;;;;;;;;;4149676;28;19999;-67
2023/12/05 10:33:59;;;;;;;;;;;;;;;;;;4149434;28;19921;-67
2023/12/05 10:36:00;;;;;;;;;;;;;;;;;;4149441;28;20428;-67
2023/12/05 10:38:02;;;;;;;;;;;;;;;;;;4149453;28;20302;-67
2023/12/05 10:40:04;;;;;;;;;;;;;;;;;;4149358;28;19932;-66
2023/12/05 10:42:06;;;;;;;;;;;;;;;;;;4149380;28;19925;-67
2023/12/05 10:44:08;;;;;;;;;;;;;;;;;;4149303;28;20348;-67
2023/12/05 10:46:09;;;;;;;;;;;;;;;;;;4149049;28;19926;-67
2023/12/05 10:48:11;;;;;;;;;;;;;;;;;;4151275;28;19991;-67
2023/12/05 10:50:13;;;;;;;;;;;;;;;;;;4131180;28;19933;-67
2023/12/05 10:52:14;;;;;;;;;;;;;;;;;;4138587;28;19973;-67
2023/12/05 10:54:16;;;;;;;;;;;;;;;;;;4143979;28;19925;-67
2023/12/05 10:56:17;;;;;;;;;;;;;;;;;;4131480;28;19933;-67
2023/12/05 10:58:19;;;;;;;;;;;;;;;;;;4148638;28;19921;-67
2023/12/05 11:00:20;;;;;;;;;;;;;;;;;;4148614;28;19921;-66
2023/12/05 11:02:22;;;;;;;;;;;;;;;;;;4149129;28;19925;-67
2023/12/05 11:04:23;;;;;;;;;;;;;;;;;;4148029;28;20374;-66
2023/12/05 11:06:26;;;;;;;;;;;;;;;;;;4148175;28;20007;-67
2023/12/05 11:08:27;;;;;;;;;;;;;;;;;;4149255;28;20290;-66
2023/12/05 11:10:29;;;;;;;;;;;;;;;;;;4148431;28;19929;-66
2023/12/05 11:12:30;;;;;;;;;;;;;;;;;;4148631;28;19921;-67
2023/12/05 11:14:32;;;;;;;;;;;;;;;;;;4147917;28;19925;-67
2023/12/05 11:16:33;;;;;;;;;;;;;;;;;;4147296;28;20404;-67
2023/12/05 11:18:35;;;;;;;;;;;;;;;;;;4148420;28;20012;-67
2023/12/05 11:20:36;;;;;;;;;;;;;;;;;;4148681;28;20056;-67
2023/12/05 11:22:38;;;;;;;;;;;;;;;;;;4153640;28;20377;-67
2023/12/05 11:24:39;;;;;;;;;;;;;;;;;;4156023;28;20336;-67
2023/12/05 11:26:41;;;;;;;;;;;;;;;;;;4149013;28;19932;-68
2023/12/05 11:28:46;;;;;;;;;;;;;;;;;;4148633;28;19968;-67
2023/12/05 11:30:47;;;;;;;;;;;;;;;;;;4130908;28;19921;-65
2023/12/05 11:32:49;;;;;;;;;;;;;;;;;;4148334;28;19921;-64
2023/12/05 11:34:51;;;;;;;;;;;;;;;;;;4148794;28;20366;-65
2023/12/05 11:36:52;;;;;;;;;;;;;;;;;;4148618;28;20362;-65
2023/12/05 11:38:54;;;;;;;;;;;;;;;;;;4148710;28;19921;-65
2023/12/05 11:40:56;;;;;;;;;;;;;;;;;;4148533;28;19980;-65
2023/12/05 11:42:57;;;;;;;;;;;;;;;;;;4148048;28;19921;-65
2023/12/05 11:44:59;;;;;;;;;;;;;;;;;;4148607;28;20333;-65
2023/12/05 11:47:01;;;;;;;;;;;;;;;;;;4148903;28;19922;-65
2023/12/05 11:49:03;;;;;;;;;;;;;;;;;;4148355;28;19972;-65
2023/12/05 11:51:04;;;;;;;;;;;;;;;;;;4148337;28;19925;-65
2023/12/05 11:53:08;;;;;;;;;;;;;;;;;;4149695;28;19921;-65
2023/12/05 11:55:09;;;;;;;;;;;;;;;;;;4164909;28;20320;-65
2023/12/05 11:57:12;;;;;;;;;;;;;;;;;;4144529;28;19921;-65
2023/12/05 11:59:13;;;;;;;;;;;;;;;;;;4148001;28;19925;-65
2023/12/05 12:01:15;;;;;;;;;;;;;;;;;;4147905;28;19926;-65
2023/12/05 12:03:16;;;;;;;;;;;;;;;;;;4130406;28;20465;-65
2023/12/05 12:05:18;;;;;;;;;;;;;;;;;;4148488;28;19933;-65
2023/12/05 12:07:20;;;;;;;;;;;;;;;;;;4148067;28;19928;-65
2023/12/05 12:09:22;;;;;;;;;;;;;;;;;;4154207;28;19988;-65
2023/12/05 12:11:24;;;;;;;;;;;;;;;;;;4146852;28;19925;-65
2023/12/05 12:13:25;;;;;;;;;;;;;;;;;;4153272;28;20378;-66
2023/12/05 12:15:27;;;;;;;;;;;;;;;;;;4153444;28;19929;-66
2023/12/05 12:17:28;;;;;;;;;;;;;;;;;;4151250;28;19925;-66
2023/12/05 12:19:30;;;;;;;;;;;;;;;;;;4147825;28;19975;-65
2023/12/05 12:21:31;;;;;;;;;;;;;;;;;;4147580;28;19929;-66
2023/12/05 12:23:33;;;;;;;;;;;;;;;;;;4148263;28;20016;-65
2023/12/05 12:25:34;;;;;;;;;;;;;;;;;;4148088;28;19944;-65
2023/12/05 12:27:37;;;;;;;;;;;;;;;;;;4149181;28;19986;-66
2023/12/05 12:29:38;;;;;;;;;;;;;;;;;;4151823;28;19968;-66
2023/12/05 12:31:40;;;;;;;;;;;;;;;;;;4151341;28;20332;-65
2023/12/05 12:33:41;;;;;;;;;;;;;;;;;;4151263;28;19925;-65
2023/12/05 12:35:43;;;;;;;;;;;;;;;;;;4151562;28;19932;-65
2023/12/05 12:37:45;;;;;;;;;;;;;;;;;;4151235;28;19984;-65
2023/12/05 12:39:52;;;;;;;;;;;;;;;;;;4151340;28;19947;-66
2023/12/05 12:42:00;;;;;;;;;;;;;;;;;;4151266;28;19927;-67
2023/12/05 12:44:01;;;;;;;;;;;;;;;;;;4153689;28;19921;-67
2023/12/05 12:46:04;;;;;;;;;;;;;;;;;;4157784;28;19932;-67
2023/12/05 12:48:05;;;;;;;;;;;;;;;;;;4133544;28;20482;-61
2023/12/05 12:50:07;;;;;;;;;;;;;;;;;;4151096;28;19940;-61
2023/12/05 12:52:11;;;;;;;;;;;;;;;;;;4151266;28;19921;-60
2023/12/05 12:54:13;;;;;;;;;;;;;;;;;;4152581;28;19956;-61
2023/12/05 12:56:14;;;;;;;;;;;;;;;;;;4151379;28;19929;-61
2023/12/05 12:58:17;;;;;;;;;;;;;;;;;;4151220;28;20392;-61
2023/12/05 13:00:19;;;;;;;;;;;;;;;;;;4150842;28;19921;-61
2023/12/05 13:02:32;;;;;;;;;;;;;;;;;;4150850;28;19972;-61
2023/12/05 13:04:34;;;;;;;;;;;;;;;;;;4151020;28;19921;-60
2023/12/05 13:06:37;;;;;;;;;;;;;;;;;;4150833;28;19925;-61
2023/12/05 13:08:38;;;;;;;;;;;;;;;;;;4156697;28;19929;-60
2023/12/05 13:10:41;;;;;;;;;;;;;;;;;;4167110;28;19925;-61
2023/12/05 13:12:42;;;;;;;;;;;;;;;;;;4158573;28;19921;-61
2023/12/05 13:14:44;;;;;;;;;;;;;;;;;;4150609;28;19929;-60
2023/12/05 13:16:45;;;;;;;;;;;;;;;;;;4150485;28;20420;-61
2023/12/05 13:18:47;;;;;;;;;;;;;;;;;;4150727;28;20333;-60
2023/12/05 13:20:50;;;;;;;;;;;;;;;;;;4150138;28;19925;-61
2023/12/05 13:22:53;;;;;;;;;;;;;;;;;;4148514;28;19925;-61
2023/12/05 13:24:54;;;;;;;;;;;;;;;;;;4148792;28;19929;-60
2023/12/05 13:26:58;;;;;;;;;;;;;;;;;;4146667;28;19960;-62
2023/12/05 13:29:00;;;;;;;;;;;;;;;;;;4149763;28;19921;-61
2023/12/05 13:31:01;;;;;;;;;;;;;;;;;;4149343;28;19973;-62
2023/12/05 13:33:03;;;;;;;;;;;;;;;;;;4149979;28;19967;-61
2023/12/05 13:35:05;;;;;;;;;;;;;;;;;;4149362;28;19921;-61
2023/12/05 13:37:07;;;;;;;;;;;;;;;;;;4148160;28;19921;-62
2023/12/05 13:39:08;;;;;;;;;;;;;;;;;;4147094;28;19925;-63
2023/12/05 13:41:12;;;;;;;;;;;;;;;;;;4149339;28;19933;-63
2023/12/05 13:43:14;;;;;;;;;;;;;;;;;;4150509;28;19921;-62
2023/12/05 13:45:15;;;;;;;;;;;;;;;;;;4148175;28;19925;-62
2023/12/05 13:47:20;;;;;;;;;;;;;;;;;;4147405;28;19922;-63
2023/12/05 13:49:22;;;;;;;;;;;;;;;;;;4147333;28;20377;-63
2023/12/05 13:51:23;;;;;;;;;;;;;;;;;;4156560;28;19925;-62